sensor_id;sensor_type;location;lat;lon;timestamp;P1;durP1;ratioP1;P2;durP2;ratioP2
24826;SDS011;12910;57.690;11.974;2023-04-24T00:00:00;17.00;;;15.50;;
24826;SDS011;12910;57.690;11.974;2023-04-24T00:02:26;16.93;;;15.40;;
24826;SDS011;12910;57.690;11.974;2023-04-24T00:04:51;16.13;;;14.80;;
24826;SDS011;12910;57.690;11.974;2023-04-24T00:07:16;17.03;;;15.63;;
24826;SDS011;12910;57.690;11.974;2023-04-24T00:09:42;15.13;;;14.03;;
24826;SDS011;12910;57.690;11.974;2023-04-24T00:12:08;17.13;;;14.57;;
24826;SDS011;12910;57.690;11.974;2023-04-24T00:14:34;16.63;;;15.07;;
24826;SDS011;12910;57.690;11.974;2023-04-24T00:17:00;17.40;;;15.80;;
24826;SDS011;12910;57.690;11.974;2023-04-24T00:19:27;17.97;;;16.43;;
24826;SDS011;12910;57.690;11.974;2023-04-24T00:21:53;18.40;;;15.17;;
24826;SDS011;12910;57.690;11.974;2023-04-24T00:24:19;15.93;;;14.57;;
24826;SDS011;12910;57.690;11.974;2023-04-24T00:26:45;15.37;;;14.37;;
24826;SDS011;12910;57.690;11.974;2023-04-24T00:29:10;16.17;;;15.07;;
24826;SDS011;12910;57.690;11.974;2023-04-24T00:31:36;15.80;;;14.80;;
24826;SDS011;12910;57.690;11.974;2023-04-24T00:34:01;16.80;;;15.50;;
24826;SDS011;12910;57.690;11.974;2023-04-24T00:36:27;22.63;;;16.33;;
24826;SDS011;12910;57.690;11.974;2023-04-24T00:38:53;14.67;;;13.77;;
24826;SDS011;12910;57.690;11.974;2023-04-24T00:41:19;15.33;;;14.17;;
24826;SDS011;12910;57.690;11.974;2023-04-24T00:43:45;16.27;;;14.77;;
24826;SDS011;12910;57.690;11.974;2023-04-24T00:46:11;15.37;;;14.27;;
24826;SDS011;12910;57.690;11.974;2023-04-24T00:48:38;15.57;;;14.47;;
24826;SDS011;12910;57.690;11.974;2023-04-24T00:51:04;17.40;;;15.63;;
24826;SDS011;12910;57.690;11.974;2023-04-24T00:53:30;17.83;;;16.10;;
24826;SDS011;12910;57.690;11.974;2023-04-24T00:55:55;15.87;;;14.60;;
24826;SDS011;12910;57.690;11.974;2023-04-24T00:58:21;16.80;;;15.13;;
24826;SDS011;12910;57.690;11.974;2023-04-24T01:00:48;17.23;;;15.60;;
24826;SDS011;12910;57.690;11.974;2023-04-24T01:03:15;17.90;;;16.23;;
24826;SDS011;12910;57.690;11.974;2023-04-24T01:05:41;16.77;;;15.77;;
24826;SDS011;12910;57.690;11.974;2023-04-24T01:08:07;16.20;;;15.10;;
24826;SDS011;12910;57.690;11.974;2023-04-24T01:10:33;16.23;;;15.20;;
24826;SDS011;12910;57.690;11.974;2023-04-24T01:12:59;16.83;;;15.63;;
24826;SDS011;12910;57.690;11.974;2023-04-24T01:15:25;17.23;;;15.77;;
24826;SDS011;12910;57.690;11.974;2023-04-24T01:17:50;17.20;;;15.73;;
24826;SDS011;12910;57.690;11.974;2023-04-24T01:20:16;17.17;;;15.93;;
24826;SDS011;12910;57.690;11.974;2023-04-24T01:22:42;16.60;;;15.60;;
24826;SDS011;12910;57.690;11.974;2023-04-24T01:25:08;16.30;;;14.73;;
24826;SDS011;12910;57.690;11.974;2023-04-24T01:27:33;16.93;;;15.50;;
24826;SDS011;12910;57.690;11.974;2023-04-24T01:29:59;16.13;;;14.80;;
24826;SDS011;12910;57.690;11.974;2023-04-24T01:32:25;15.73;;;14.43;;
24826;SDS011;12910;57.690;11.974;2023-04-24T01:34:50;17.10;;;16.00;;
24826;SDS011;12910;57.690;11.974;2023-04-24T01:37:16;17.40;;;15.90;;
24826;SDS011;12910;57.690;11.974;2023-04-24T01:39:42;16.00;;;14.93;;
24826;SDS011;12910;57.690;11.974;2023-04-24T01:42:08;15.57;;;14.07;;
24826;SDS011;12910;57.690;11.974;2023-04-24T01:44:34;16.23;;;14.70;;
24826;SDS011;12910;57.690;11.974;2023-04-24T01:47:00;15.67;;;14.63;;
24826;SDS011;12910;57.690;11.974;2023-04-24T01:49:26;15.07;;;14.00;;
24826;SDS011;12910;57.690;11.974;2023-04-24T01:51:52;16.17;;;13.47;;
24826;SDS011;12910;57.690;11.974;2023-04-24T01:54:17;14.93;;;13.93;;
24826;SDS011;12910;57.690;11.974;2023-04-24T01:56:43;15.23;;;14.20;;
24826;SDS011;12910;57.690;11.974;2023-04-24T01:59:09;15.50;;;14.30;;
24826;SDS011;12910;57.690;11.974;2023-04-24T02:01:36;14.33;;;13.53;;
24826;SDS011;12910;57.690;11.974;2023-04-24T02:04:03;15.57;;;14.20;;
24826;SDS011;12910;57.690;11.974;2023-04-24T02:06:28;16.47;;;15.13;;
24826;SDS011;12910;57.690;11.974;2023-04-24T02:08:56;14.60;;;13.27;;
24826;SDS011;12910;57.690;11.974;2023-04-24T02:11:21;15.33;;;14.33;;
24826;SDS011;12910;57.690;11.974;2023-04-24T02:13:46;14.00;;;12.90;;
24826;SDS011;12910;57.690;11.974;2023-04-24T02:16:12;14.43;;;13.27;;
24826;SDS011;12910;57.690;11.974;2023-04-24T02:18:37;15.63;;;14.53;;
24826;SDS011;12910;57.690;11.974;2023-04-24T02:21:03;14.67;;;13.77;;
24826;SDS011;12910;57.690;11.974;2023-04-24T02:23:28;15.20;;;14.20;;
24826;SDS011;12910;57.690;11.974;2023-04-24T02:25:53;14.23;;;13.27;;
24826;SDS011;12910;57.690;11.974;2023-04-24T02:28:19;13.83;;;13.03;;
24826;SDS011;12910;57.690;11.974;2023-04-24T02:30:44;14.80;;;13.73;;
24826;SDS011;12910;57.690;11.974;2023-04-24T02:33:11;15.23;;;13.87;;
24826;SDS011;12910;57.690;11.974;2023-04-24T02:35:36;14.37;;;13.37;;
24826;SDS011;12910;57.690;11.974;2023-04-24T02:38:02;14.57;;;13.57;;
24826;SDS011;12910;57.690;11.974;2023-04-24T02:40:28;14.67;;;13.20;;
24826;SDS011;12910;57.690;11.974;2023-04-24T02:42:54;14.03;;;13.13;;
24826;SDS011;12910;57.690;11.974;2023-04-24T02:45:19;14.80;;;13.53;;
24826;SDS011;12910;57.690;11.974;2023-04-24T02:47:45;13.97;;;13.03;;
24826;SDS011;12910;57.690;11.974;2023-04-24T02:50:10;14.93;;;13.73;;
24826;SDS011;12910;57.690;11.974;2023-04-24T02:52:35;14.70;;;13.60;;
24826;SDS011;12910;57.690;11.974;2023-04-24T02:55:01;14.40;;;13.50;;
24826;SDS011;12910;57.690;11.974;2023-04-24T02:57:27;14.93;;;13.90;;
24826;SDS011;12910;57.690;11.974;2023-04-24T02:59:52;14.03;;;13.23;;
24826;SDS011;12910;57.690;11.974;2023-04-24T03:02:17;14.10;;;13.20;;
24826;SDS011;12910;57.690;11.974;2023-04-24T03:04:43;13.80;;;12.73;;
24826;SDS011;12910;57.690;11.974;2023-04-24T03:07:08;14.50;;;13.37;;
24826;SDS011;12910;57.690;11.974;2023-04-24T03:09:33;14.33;;;13.00;;
24826;SDS011;12910;57.690;11.974;2023-04-24T03:11:59;13.80;;;12.80;;
24826;SDS011;12910;57.690;11.974;2023-04-24T03:14:25;14.10;;;12.97;;
24826;SDS011;12910;57.690;11.974;2023-04-24T03:16:50;13.57;;;12.57;;
24826;SDS011;12910;57.690;11.974;2023-04-24T03:19:16;13.97;;;12.50;;
24826;SDS011;12910;57.690;11.974;2023-04-24T03:21:41;14.07;;;12.93;;
24826;SDS011;12910;57.690;11.974;2023-04-24T03:24:10;13.90;;;12.80;;
24826;SDS011;12910;57.690;11.974;2023-04-24T03:26:35;14.17;;;13.27;;
24826;SDS011;12910;57.690;11.974;2023-04-24T03:29:01;13.43;;;12.23;;
24826;SDS011;12910;57.690;11.974;2023-04-24T03:31:27;13.87;;;12.97;;
24826;SDS011;12910;57.690;11.974;2023-04-24T03:33:53;12.73;;;11.73;;
24826;SDS011;12910;57.690;11.974;2023-04-24T03:36:18;14.03;;;12.70;;
24826;SDS011;12910;57.690;11.974;2023-04-24T03:38:44;12.77;;;11.87;;
24826;SDS011;12910;57.690;11.974;2023-04-24T03:41:10;13.83;;;12.83;;
24826;SDS011;12910;57.690;11.974;2023-04-24T03:43:35;13.53;;;12.53;;
24826;SDS011;12910;57.690;11.974;2023-04-24T03:46:00;13.73;;;12.53;;
24826;SDS011;12910;57.690;11.974;2023-04-24T03:48:26;12.43;;;11.67;;
24826;SDS011;12910;57.690;11.974;2023-04-24T03:50:51;13.20;;;12.13;;
24826;SDS011;12910;57.690;11.974;2023-04-24T03:53:17;13.07;;;12.07;;
24826;SDS011;12910;57.690;11.974;2023-04-24T03:55:42;13.80;;;12.60;;
24826;SDS011;12910;57.690;11.974;2023-04-24T03:58:08;14.27;;;11.97;;
24826;SDS011;12910;57.690;11.974;2023-04-24T04:00:33;12.83;;;11.70;;
24826;SDS011;12910;57.690;11.974;2023-04-24T04:02:59;12.50;;;11.57;;
24826;SDS011;12910;57.690;11.974;2023-04-24T04:05:25;12.17;;;11.40;;
24826;SDS011;12910;57.690;11.974;2023-04-24T04:07:50;13.30;;;12.13;;
24826;SDS011;12910;57.690;11.974;2023-04-24T04:10:15;14.57;;;12.33;;
24826;SDS011;12910;57.690;11.974;2023-04-24T04:12:42;12.93;;;11.83;;
24826;SDS011;12910;57.690;11.974;2023-04-24T04:15:07;12.13;;;11.33;;
24826;SDS011;12910;57.690;11.974;2023-04-24T04:17:33;13.50;;;12.30;;
24826;SDS011;12910;57.690;11.974;2023-04-24T04:19:58;12.80;;;11.47;;
24826;SDS011;12910;57.690;11.974;2023-04-24T04:22:24;12.63;;;11.57;;
24826;SDS011;12910;57.690;11.974;2023-04-24T04:24:49;11.43;;;10.63;;
24826;SDS011;12910;57.690;11.974;2023-04-24T04:27:15;11.50;;;10.70;;
24826;SDS011;12910;57.690;11.974;2023-04-24T04:29:41;12.37;;;11.33;;
24826;SDS011;12910;57.690;11.974;2023-04-24T04:32:07;12.30;;;11.40;;
24826;SDS011;12910;57.690;11.974;2023-04-24T04:34:32;11.83;;;10.83;;
24826;SDS011;12910;57.690;11.974;2023-04-24T04:36:58;11.47;;;10.47;;
24826;SDS011;12910;57.690;11.974;2023-04-24T04:39:27;12.50;;;11.30;;
24826;SDS011;12910;57.690;11.974;2023-04-24T04:41:53;12.73;;;11.60;;
24826;SDS011;12910;57.690;11.974;2023-04-24T04:44:19;13.03;;;12.00;;
24826;SDS011;12910;57.690;11.974;2023-04-24T04:46:44;12.33;;;11.30;;
24826;SDS011;12910;57.690;11.974;2023-04-24T04:49:10;12.33;;;11.27;;
24826;SDS011;12910;57.690;11.974;2023-04-24T04:51:35;11.50;;;10.70;;
24826;SDS011;12910;57.690;11.974;2023-04-24T04:54:01;12.10;;;11.27;;
24826;SDS011;12910;57.690;11.974;2023-04-24T04:56:27;14.87;;;11.30;;
24826;SDS011;12910;57.690;11.974;2023-04-24T04:58:52;12.03;;;10.87;;
24826;SDS011;12910;57.690;11.974;2023-04-24T05:01:18;12.40;;;11.20;;
24826;SDS011;12910;57.690;11.974;2023-04-24T05:03:43;11.17;;;10.23;;
24826;SDS011;12910;57.690;11.974;2023-04-24T05:06:09;15.80;;;10.90;;
24826;SDS011;12910;57.690;11.974;2023-04-24T05:08:34;11.13;;;10.27;;
24826;SDS011;12910;57.690;11.974;2023-04-24T05:10:59;18.70;;;11.13;;
24826;SDS011;12910;57.690;11.974;2023-04-24T05:13:25;11.27;;;10.40;;
24826;SDS011;12910;57.690;11.974;2023-04-24T05:15:50;13.67;;;10.60;;
24826;SDS011;12910;57.690;11.974;2023-04-24T05:18:16;11.00;;;10.20;;
24826;SDS011;12910;57.690;11.974;2023-04-24T05:20:41;10.63;;;9.93;;
24826;SDS011;12910;57.690;11.974;2023-04-24T05:23:08;14.80;;;12.43;;
24826;SDS011;12910;57.690;11.974;2023-04-24T05:25:34;11.57;;;10.40;;
24826;SDS011;12910;57.690;11.974;2023-04-24T05:28:00;10.07;;;9.17;;
24826;SDS011;12910;57.690;11.974;2023-04-24T05:30:27;11.50;;;10.60;;
24826;SDS011;12910;57.690;11.974;2023-04-24T05:32:52;11.30;;;10.27;;
24826;SDS011;12910;57.690;11.974;2023-04-24T05:35:17;10.43;;;9.40;;
24826;SDS011;12910;57.690;11.974;2023-04-24T05:37:43;10.13;;;9.43;;
24826;SDS011;12910;57.690;11.974;2023-04-24T05:40:09;12.20;;;11.10;;
24826;SDS011;12910;57.690;11.974;2023-04-24T05:42:36;11.90;;;10.40;;
24826;SDS011;12910;57.690;11.974;2023-04-24T05:45:01;10.60;;;9.60;;
24826;SDS011;12910;57.690;11.974;2023-04-24T05:47:27;22.83;;;10.67;;
24826;SDS011;12910;57.690;11.974;2023-04-24T05:49:52;16.80;;;10.53;;
24826;SDS011;12910;57.690;11.974;2023-04-24T05:52:18;11.60;;;10.50;;
24826;SDS011;12910;57.690;11.974;2023-04-24T05:54:43;10.20;;;9.47;;
24826;SDS011;12910;57.690;11.974;2023-04-24T05:57:09;10.43;;;9.73;;
24826;SDS011;12910;57.690;11.974;2023-04-24T05:59:36;11.43;;;10.53;;
24826;SDS011;12910;57.690;11.974;2023-04-24T06:02:03;10.43;;;9.67;;
24826;SDS011;12910;57.690;11.974;2023-04-24T06:04:29;17.37;;;11.70;;
24826;SDS011;12910;57.690;11.974;2023-04-24T06:06:54;10.07;;;9.43;;
24826;SDS011;12910;57.690;11.974;2023-04-24T06:09:24;9.87;;;9.20;;
24826;SDS011;12910;57.690;11.974;2023-04-24T06:11:50;10.30;;;9.50;;
24826;SDS011;12910;57.690;11.974;2023-04-24T06:14:18;11.60;;;9.23;;
24826;SDS011;12910;57.690;11.974;2023-04-24T06:16:43;10.47;;;9.67;;
24826;SDS011;12910;57.690;11.974;2023-04-24T06:19:09;9.50;;;8.90;;
24826;SDS011;12910;57.690;11.974;2023-04-24T06:21:34;10.30;;;9.70;;
24826;SDS011;12910;57.690;11.974;2023-04-24T06:23:59;9.50;;;8.77;;
24826;SDS011;12910;57.690;11.974;2023-04-24T06:26:25;10.83;;;9.93;;
24826;SDS011;12910;57.690;11.974;2023-04-24T06:28:51;12.47;;;10.77;;
24826;SDS011;12910;57.690;11.974;2023-04-24T06:31:19;11.83;;;9.50;;
24826;SDS011;12910;57.690;11.974;2023-04-24T06:33:45;10.03;;;9.33;;
24826;SDS011;12910;57.690;11.974;2023-04-24T06:36:10;9.30;;;8.70;;
24826;SDS011;12910;57.690;11.974;2023-04-24T06:38:36;9.50;;;8.53;;
24826;SDS011;12910;57.690;11.974;2023-04-24T06:41:02;11.73;;;10.13;;
24826;SDS011;12910;57.690;11.974;2023-04-24T06:43:29;10.33;;;9.37;;
24826;SDS011;12910;57.690;11.974;2023-04-24T06:45:55;10.13;;;9.30;;
24826;SDS011;12910;57.690;11.974;2023-04-24T06:48:22;9.37;;;8.67;;
24826;SDS011;12910;57.690;11.974;2023-04-24T06:50:47;9.87;;;9.10;;
24826;SDS011;12910;57.690;11.974;2023-04-24T06:53:12;10.50;;;9.23;;
24826;SDS011;12910;57.690;11.974;2023-04-24T06:55:39;9.53;;;8.60;;
24826;SDS011;12910;57.690;11.974;2023-04-24T06:58:05;9.13;;;8.27;;
24826;SDS011;12910;57.690;11.974;2023-04-24T07:00:31;10.40;;;9.60;;
24826;SDS011;12910;57.690;11.974;2023-04-24T07:02:56;9.53;;;8.73;;
24826;SDS011;12910;57.690;11.974;2023-04-24T07:05:22;8.93;;;7.97;;
24826;SDS011;12910;57.690;11.974;2023-04-24T07:07:48;9.03;;;8.43;;
24826;SDS011;12910;57.690;11.974;2023-04-24T07:10:14;13.97;;;9.00;;
24826;SDS011;12910;57.690;11.974;2023-04-24T07:12:40;13.37;;;9.40;;
24826;SDS011;12910;57.690;11.974;2023-04-24T07:15:06;10.13;;;9.23;;
24826;SDS011;12910;57.690;11.974;2023-04-24T07:17:32;9.17;;;8.53;;
24826;SDS011;12910;57.690;11.974;2023-04-24T07:19:59;8.07;;;7.47;;
24826;SDS011;12910;57.690;11.974;2023-04-24T07:22:25;9.40;;;8.67;;
24826;SDS011;12910;57.690;11.974;2023-04-24T07:24:50;9.57;;;8.97;;
24826;SDS011;12910;57.690;11.974;2023-04-24T07:27:16;8.63;;;8.13;;
24826;SDS011;12910;57.690;11.974;2023-04-24T07:29:42;9.00;;;8.47;;
24826;SDS011;12910;57.690;11.974;2023-04-24T07:32:07;9.63;;;8.97;;
24826;SDS011;12910;57.690;11.974;2023-04-24T07:34:33;9.67;;;9.07;;
24826;SDS011;12910;57.690;11.974;2023-04-24T07:36:58;9.10;;;8.50;;
24826;SDS011;12910;57.690;11.974;2023-04-24T07:39:24;8.83;;;8.07;;
24826;SDS011;12910;57.690;11.974;2023-04-24T07:41:50;9.77;;;8.50;;
24826;SDS011;12910;57.690;11.974;2023-04-24T07:44:15;9.17;;;8.67;;
24826;SDS011;12910;57.690;11.974;2023-04-24T07:46:40;8.90;;;8.10;;
24826;SDS011;12910;57.690;11.974;2023-04-24T07:49:06;8.70;;;8.20;;
24826;SDS011;12910;57.690;11.974;2023-04-24T07:51:31;8.67;;;8.03;;
24826;SDS011;12910;57.690;11.974;2023-04-24T07:54:02;9.40;;;8.73;;
24826;SDS011;12910;57.690;11.974;2023-04-24T07:56:28;9.50;;;8.80;;
24826;SDS011;12910;57.690;11.974;2023-04-24T07:58:56;10.20;;;9.50;;
24826;SDS011;12910;57.690;11.974;2023-04-24T08:01:21;10.90;;;10.03;;
24826;SDS011;12910;57.690;11.974;2023-04-24T08:03:46;10.57;;;9.87;;
24826;SDS011;12910;57.690;11.974;2023-04-24T08:06:12;11.80;;;10.10;;
24826;SDS011;12910;57.690;11.974;2023-04-24T08:08:37;10.40;;;9.80;;
24826;SDS011;12910;57.690;11.974;2023-04-24T08:11:03;10.50;;;9.80;;
24826;SDS011;12910;57.690;11.974;2023-04-24T08:13:28;11.87;;;11.00;;
24826;SDS011;12910;57.690;11.974;2023-04-24T08:15:54;13.20;;;10.20;;
24826;SDS011;12910;57.690;11.974;2023-04-24T08:18:19;9.67;;;8.97;;
24826;SDS011;12910;57.690;11.974;2023-04-24T08:20:44;9.93;;;9.23;;
24826;SDS011;12910;57.690;11.974;2023-04-24T08:23:10;11.10;;;10.13;;
24826;SDS011;12910;57.690;11.974;2023-04-24T08:25:35;9.63;;;9.03;;
24826;SDS011;12910;57.690;11.974;2023-04-24T08:28:05;9.67;;;9.17;;
24826;SDS011;12910;57.690;11.974;2023-04-24T08:30:33;10.13;;;9.53;;
24826;SDS011;12910;57.690;11.974;2023-04-24T08:32:58;10.17;;;9.37;;
24826;SDS011;12910;57.690;11.974;2023-04-24T08:35:24;8.67;;;8.17;;
24826;SDS011;12910;57.690;11.974;2023-04-24T08:37:50;9.23;;;8.63;;
24826;SDS011;12910;57.690;11.974;2023-04-24T08:40:17;10.07;;;8.90;;
24826;SDS011;12910;57.690;11.974;2023-04-24T08:42:42;10.10;;;9.17;;
24826;SDS011;12910;57.690;11.974;2023-04-24T08:45:09;9.73;;;9.03;;
24826;SDS011;12910;57.690;11.974;2023-04-24T08:47:36;8.50;;;7.90;;
24826;SDS011;12910;57.690;11.974;2023-04-24T08:50:03;9.37;;;8.87;;
24826;SDS011;12910;57.690;11.974;2023-04-24T08:52:32;12.00;;;8.50;;
24826;SDS011;12910;57.690;11.974;2023-04-24T08:54:58;7.80;;;7.30;;
24826;SDS011;12910;57.690;11.974;2023-04-24T08:57:25;8.53;;;7.87;;
24826;SDS011;12910;57.690;11.974;2023-04-24T08:59:51;7.53;;;7.03;;
24826;SDS011;12910;57.690;11.974;2023-04-24T09:02:18;7.83;;;7.33;;
24826;SDS011;12910;57.690;11.974;2023-04-24T09:04:44;7.00;;;6.37;;
24826;SDS011;12910;57.690;11.974;2023-04-24T09:07:12;5.67;;;5.17;;
24826;SDS011;12910;57.690;11.974;2023-04-24T09:09:41;7.13;;;6.43;;
24826;SDS011;12910;57.690;11.974;2023-04-24T09:12:07;6.27;;;5.87;;
24826;SDS011;12910;57.690;11.974;2023-04-24T09:14:34;6.10;;;5.60;;
24826;SDS011;12910;57.690;11.974;2023-04-24T09:17:03;6.50;;;5.80;;
24826;SDS011;12910;57.690;11.974;2023-04-24T09:19:29;8.63;;;6.33;;
24826;SDS011;12910;57.690;11.974;2023-04-24T09:21:54;5.63;;;5.13;;
24826;SDS011;12910;57.690;11.974;2023-04-24T09:24:21;6.00;;;5.60;;
24826;SDS011;12910;57.690;11.974;2023-04-24T09:26:58;6.37;;;5.87;;
24826;SDS011;12910;57.690;11.974;2023-04-24T09:29:26;5.33;;;5.03;;
24826;SDS011;12910;57.690;11.974;2023-04-24T09:31:52;9.40;;;6.00;;
24826;SDS011;12910;57.690;11.974;2023-04-24T09:34:25;6.20;;;5.70;;
24826;SDS011;12910;57.690;11.974;2023-04-24T09:36:52;8.17;;;6.27;;
24826;SDS011;12910;57.690;11.974;2023-04-24T09:39:19;6.37;;;5.77;;
24826;SDS011;12910;57.690;11.974;2023-04-24T09:41:49;6.60;;;6.20;;
24826;SDS011;12910;57.690;11.974;2023-04-24T09:44:18;7.60;;;7.10;;
24826;SDS011;12910;57.690;11.974;2023-04-24T09:46:53;6.83;;;6.20;;
24826;SDS011;12910;57.690;11.974;2023-04-24T09:49:22;6.57;;;6.17;;
24826;SDS011;12910;57.690;11.974;2023-04-24T09:51:49;6.13;;;5.73;;
24826;SDS011;12910;57.690;11.974;2023-04-24T09:54:18;6.27;;;5.87;;
24826;SDS011;12910;57.690;11.974;2023-04-24T09:56:46;7.00;;;6.60;;
24826;SDS011;12910;57.690;11.974;2023-04-24T09:59:14;6.97;;;6.47;;
24826;SDS011;12910;57.690;11.974;2023-04-24T10:01:40;6.83;;;6.10;;
24826;SDS011;12910;57.690;11.974;2023-04-24T10:04:20;6.27;;;5.87;;
24826;SDS011;12910;57.690;11.974;2023-04-24T10:06:46;6.07;;;5.67;;
24826;SDS011;12910;57.690;11.974;2023-04-24T10:09:13;6.53;;;6.13;;
24826;SDS011;12910;57.690;11.974;2023-04-24T10:11:43;6.23;;;5.80;;
24826;SDS011;12910;57.690;11.974;2023-04-24T10:14:14;5.50;;;5.20;;
24826;SDS011;12910;57.690;11.974;2023-04-24T10:16:47;6.50;;;6.10;;
24826;SDS011;12910;57.690;11.974;2023-04-24T10:19:14;6.77;;;6.20;;
24826;SDS011;12910;57.690;11.974;2023-04-24T10:21:40;6.00;;;5.60;;
24826;SDS011;12910;57.690;11.974;2023-04-24T10:24:11;5.60;;;5.30;;
24826;SDS011;12910;57.690;11.974;2023-04-24T10:26:38;6.63;;;6.13;;
24826;SDS011;12910;57.690;11.974;2023-04-24T10:29:05;6.43;;;5.93;;
24826;SDS011;12910;57.690;11.974;2023-04-24T10:31:34;6.30;;;5.90;;
24826;SDS011;12910;57.690;11.974;2023-04-24T10:34:02;6.50;;;6.10;;
24826;SDS011;12910;57.690;11.974;2023-04-24T10:36:29;6.27;;;5.97;;
24826;SDS011;12910;57.690;11.974;2023-04-24T10:38:57;6.23;;;5.83;;
24826;SDS011;12910;57.690;11.974;2023-04-24T10:41:25;6.80;;;6.40;;
24826;SDS011;12910;57.690;11.974;2023-04-24T10:44:06;7.27;;;6.87;;
24826;SDS011;12910;57.690;11.974;2023-04-24T10:46:37;6.07;;;5.73;;
24826;SDS011;12910;57.690;11.974;2023-04-24T10:49:03;5.90;;;5.50;;
24826;SDS011;12910;57.690;11.974;2023-04-24T10:51:51;6.33;;;6.03;;
24826;SDS011;12910;57.690;11.974;2023-04-24T10:54:21;5.97;;;5.40;;
24826;SDS011;12910;57.690;11.974;2023-04-24T10:56:51;5.90;;;5.60;;
24826;SDS011;12910;57.690;11.974;2023-04-24T10:59:34;5.40;;;5.00;;
24826;SDS011;12910;57.690;11.974;2023-04-24T11:02:02;5.03;;;4.67;;
24826;SDS011;12910;57.690;11.974;2023-04-24T11:04:31;5.90;;;5.50;;
24826;SDS011;12910;57.690;11.974;2023-04-24T11:06:57;5.87;;;5.10;;
24826;SDS011;12910;57.690;11.974;2023-04-24T11:09:25;5.60;;;5.30;;
24826;SDS011;12910;57.690;11.974;2023-04-24T11:11:53;6.47;;;5.63;;
24826;SDS011;12910;57.690;11.974;2023-04-24T11:14:29;5.10;;;4.57;;
24826;SDS011;12910;57.690;11.974;2023-04-24T11:16:54;5.10;;;4.80;;
24826;SDS011;12910;57.690;11.974;2023-04-24T11:21:59;4.73;;;4.43;;
24826;SDS011;12910;57.690;11.974;2023-04-24T11:27:17;4.87;;;4.67;;
24826;SDS011;12910;57.690;11.974;2023-04-24T11:32:36;4.77;;;4.37;;
24826;SDS011;12910;57.690;11.974;2023-04-24T11:35:03;5.57;;;5.07;;
24826;SDS011;12910;57.690;11.974;2023-04-24T11:37:37;4.73;;;4.33;;
24826;SDS011;12910;57.690;11.974;2023-04-24T11:40:08;4.40;;;4.20;;
24826;SDS011;12910;57.690;11.974;2023-04-24T11:42:35;4.43;;;4.13;;
24826;SDS011;12910;57.690;11.974;2023-04-24T11:45:01;4.40;;;4.20;;
24826;SDS011;12910;57.690;11.974;2023-04-24T11:47:32;5.70;;;5.17;;
24826;SDS011;12910;57.690;11.974;2023-04-24T11:49:58;4.97;;;4.60;;
24826;SDS011;12910;57.690;11.974;2023-04-24T11:52:25;3.47;;;3.20;;
24826;SDS011;12910;57.690;11.974;2023-04-24T11:54:51;10.50;;;4.33;;
24826;SDS011;12910;57.690;11.974;2023-04-24T11:57:20;3.73;;;3.43;;
24826;SDS011;12910;57.690;11.974;2023-04-24T11:59:46;3.67;;;3.47;;
24826;SDS011;12910;57.690;11.974;2023-04-24T12:02:22;3.53;;;3.33;;
24826;SDS011;12910;57.690;11.974;2023-04-24T12:04:48;5.70;;;3.50;;
24826;SDS011;12910;57.690;11.974;2023-04-24T12:07:14;4.37;;;3.17;;
24826;SDS011;12910;57.690;11.974;2023-04-24T12:09:40;4.40;;;4.10;;
24826;SDS011;12910;57.690;11.974;2023-04-24T12:12:06;3.83;;;3.53;;
24826;SDS011;12910;57.690;11.974;2023-04-24T12:14:32;6.87;;;2.80;;
24826;SDS011;12910;57.690;11.974;2023-04-24T12:16:57;2.70;;;2.50;;
24826;SDS011;12910;57.690;11.974;2023-04-24T12:19:23;3.00;;;2.70;;
24826;SDS011;12910;57.690;11.974;2023-04-24T12:22:02;2.70;;;2.50;;
24826;SDS011;12910;57.690;11.974;2023-04-24T12:24:30;2.70;;;2.50;;
24826;SDS011;12910;57.690;11.974;2023-04-24T12:26:56;3.43;;;3.13;;
24826;SDS011;12910;57.690;11.974;2023-04-24T12:29:22;4.20;;;2.57;;
24826;SDS011;12910;57.690;11.974;2023-04-24T12:31:47;2.73;;;2.53;;
24826;SDS011;12910;57.690;11.974;2023-04-24T12:34:20;2.57;;;2.37;;
24826;SDS011;12910;57.690;11.974;2023-04-24T12:36:46;7.43;;;2.60;;
24826;SDS011;12910;57.690;11.974;2023-04-24T12:39:18;10.80;;;2.03;;
24826;SDS011;12910;57.690;11.974;2023-04-24T12:41:50;2.40;;;2.07;;
24826;SDS011;12910;57.690;11.974;2023-04-24T12:44:31;3.60;;;3.40;;
24826;SDS011;12910;57.690;11.974;2023-04-24T12:46:59;2.47;;;2.27;;
24826;SDS011;12910;57.690;11.974;2023-04-24T12:49:25;3.13;;;2.03;;
24826;SDS011;12910;57.690;11.974;2023-04-24T12:51:51;2.77;;;2.57;;
24826;SDS011;12910;57.690;11.974;2023-04-24T12:54:17;2.87;;;2.20;;
24826;SDS011;12910;57.690;11.974;2023-04-24T12:56:43;3.40;;;2.60;;
24826;SDS011;12910;57.690;11.974;2023-04-24T12:59:08;6.27;;;2.50;;
24826;SDS011;12910;57.690;11.974;2023-04-24T13:01:34;4.03;;;2.10;;
24826;SDS011;12910;57.690;11.974;2023-04-24T13:03:59;1.83;;;1.73;;
24826;SDS011;12910;57.690;11.974;2023-04-24T13:06:25;13.07;;;9.17;;
24826;SDS011;12910;57.690;11.974;2023-04-24T13:08:51;1.90;;;1.80;;
24826;SDS011;12910;57.690;11.974;2023-04-24T13:11:16;2.40;;;2.20;;
24826;SDS011;12910;57.690;11.974;2023-04-24T13:13:42;6.13;;;2.33;;
24826;SDS011;12910;57.690;11.974;2023-04-24T13:16:08;2.50;;;2.17;;
24826;SDS011;12910;57.690;11.974;2023-04-24T13:18:33;5.23;;;2.63;;
24826;SDS011;12910;57.690;11.974;2023-04-24T13:20:58;2.27;;;2.07;;
24826;SDS011;12910;57.690;11.974;2023-04-24T13:23:24;2.53;;;2.43;;
24826;SDS011;12910;57.690;11.974;2023-04-24T13:25:49;2.73;;;2.53;;
24826;SDS011;12910;57.690;11.974;2023-04-24T13:28:15;4.63;;;1.97;;
24826;SDS011;12910;57.690;11.974;2023-04-24T13:30:40;2.83;;;2.63;;
24826;SDS011;12910;57.690;11.974;2023-04-24T13:33:06;4.37;;;2.67;;
24826;SDS011;12910;57.690;11.974;2023-04-24T13:35:31;2.63;;;2.43;;
24826;SDS011;12910;57.690;11.974;2023-04-24T13:37:57;2.70;;;2.50;;
24826;SDS011;12910;57.690;11.974;2023-04-24T13:40:23;2.40;;;2.30;;
24826;SDS011;12910;57.690;11.974;2023-04-24T13:42:48;2.67;;;2.57;;
24826;SDS011;12910;57.690;11.974;2023-04-24T13:45:14;3.60;;;2.43;;
24826;SDS011;12910;57.690;11.974;2023-04-24T13:47:39;2.37;;;2.20;;
24826;SDS011;12910;57.690;11.974;2023-04-24T13:50:06;4.23;;;2.30;;
24826;SDS011;12910;57.690;11.974;2023-04-24T13:52:33;7.03;;;3.30;;
24826;SDS011;12910;57.690;11.974;2023-04-24T13:54:58;4.10;;;2.30;;
24826;SDS011;12910;57.690;11.974;2023-04-24T13:57:24;2.80;;;2.70;;
24826;SDS011;12910;57.690;11.974;2023-04-24T13:59:49;3.37;;;2.70;;
24826;SDS011;12910;57.690;11.974;2023-04-24T14:02:15;2.73;;;2.53;;
24826;SDS011;12910;57.690;11.974;2023-04-24T14:04:40;3.97;;;2.93;;
24826;SDS011;12910;57.690;11.974;2023-04-24T14:07:05;3.23;;;2.80;;
24826;SDS011;12910;57.690;11.974;2023-04-24T14:09:31;3.20;;;3.00;;
24826;SDS011;12910;57.690;11.974;2023-04-24T14:11:56;3.00;;;2.80;;
24826;SDS011;12910;57.690;11.974;2023-04-24T14:14:22;3.57;;;3.27;;
24826;SDS011;12910;57.690;11.974;2023-04-24T14:16:47;3.93;;;3.57;;
24826;SDS011;12910;57.690;11.974;2023-04-24T14:19:13;4.00;;;3.70;;
24826;SDS011;12910;57.690;11.974;2023-04-24T14:21:38;3.93;;;3.63;;
24826;SDS011;12910;57.690;11.974;2023-04-24T14:24:04;5.30;;;4.80;;